Aviation Digital Data Service (ADDS)

Output produced by METARs form (0559 UTC 29 July 2016)
found at http://aviationweather.gov/adds/metars/
 
KLAS 290520Z 2906/3006 21007KT P6SM SCT120 BKN250 
     FM291400 VRB05KT P6SM BKN250 
     FM300200 18007KT P6SM FEW120 BKN250